Metigoshe, North Dakota
Current Conditions -  °F | °C
As of 1:35 AM on Wednesday 26 Nov 2014 (Local Time) from KRUG Reporting Station
Scattered Clouds Scattered Clouds  
Wind Chill:   Ceiling: Unl
Heat Index:   Visibility: 10mi
Dew Point: -2°   Wind: 3mph
Humidity: 92%   Direction: 330°NNW
Pressure: 30.23"   Gusts: NA
Location:  48.8385°N, 100.496°W
Report Text: KRUG 260735Z AUTO 33003KT 10SM SCT100 M18/M19 A3023 RMK AO2
Loading
Personal Weather Stations






























Interactive Weather Map New forecast layout! Learn more

10-Day Weather Forecast

Advertisements
Track Severe Weather on mobile